createdAt,value
2023-05-01T00:01:31.293Z,4.10
2023-05-01T00:03:58.872Z,4.55
2023-05-01T00:06:26.868Z,5.35
2023-05-01T00:08:57.103Z,4.57
2023-05-01T00:11:24.878Z,4.72
2023-05-01T00:13:54.496Z,4.60
2023-05-01T00:16:22.448Z,3.95
2023-05-01T00:18:49.863Z,4.60
2023-05-01T00:21:17.193Z,4.07
2023-05-01T00:23:44.430Z,4.57
2023-05-01T00:26:11.711Z,4.50
2023-05-01T00:28:41.565Z,5.10
2023-05-01T00:31:08.833Z,5.10
2023-05-01T00:33:37.372Z,4.22
2023-05-01T00:36:05.223Z,4.60
2023-05-01T00:38:32.534Z,3.95
2023-05-01T00:41:00.887Z,4.68
2023-05-01T00:43:29.685Z,4.72
2023-05-01T00:45:57.047Z,4.60
2023-05-01T00:48:24.507Z,4.85
2023-05-01T00:50:54.278Z,4.82
2023-05-01T00:53:24.424Z,4.45
2023-05-01T00:55:53.850Z,4.22
2023-05-01T00:58:21.559Z,4.82
2023-05-01T01:00:50.438Z,4.80
2023-05-01T01:03:17.829Z,5.07
2023-05-01T01:06:08.402Z,4.70
2023-05-01T01:08:49.711Z,5.32
2023-05-01T01:12:04.147Z,4.95
2023-05-01T01:15:22.672Z,4.40
2023-05-01T01:18:09.340Z,4.78
2023-05-01T01:21:54.594Z,4.68
2023-05-01T01:25:33.580Z,4.53
2023-05-01T01:28:52.095Z,4.05
2023-05-01T01:32:06.018Z,4.45
2023-05-01T01:34:48.376Z,5.13
2023-05-01T01:37:24.913Z,4.55
2023-05-01T01:40:14.023Z,4.53
2023-05-01T01:42:59.275Z,4.50
2023-05-01T01:45:43.150Z,5.90
2023-05-01T01:48:23.935Z,4.80
2023-05-01T01:50:54.704Z,4.80
2023-05-01T01:53:26.569Z,4.65
2023-05-01T01:55:58.054Z,4.45
2023-05-01T01:58:27.764Z,4.93
2023-05-01T02:00:59.210Z,4.38
2023-05-01T02:03:27.592Z,5.18
2023-05-01T02:06:00.881Z,5.43
2023-05-01T02:08:31.831Z,4.88
2023-05-01T02:11:02.901Z,4.63
2023-05-01T02:13:33.465Z,4.35
2023-05-01T02:16:03.301Z,5.60
2023-05-01T02:18:31.955Z,4.72
2023-05-01T02:21:03.133Z,5.03
2023-05-01T02:23:38.579Z,5.35
2023-05-01T02:26:12.291Z,5.60
2023-05-01T02:28:41.470Z,4.80
2023-05-01T02:31:10.431Z,5.05
2023-05-01T02:33:37.779Z,5.60
2023-05-01T02:36:05.442Z,5.32
2023-05-01T02:38:35.424Z,4.90
2023-05-01T02:41:04.032Z,6.75
2023-05-01T02:43:34.143Z,5.00
2023-05-01T02:46:04.723Z,4.72
2023-05-01T02:48:38.312Z,5.53
2023-05-01T02:51:07.492Z,4.72
2023-05-01T02:53:36.331Z,5.10
2023-05-01T02:56:14.086Z,4.78
2023-05-01T02:58:42.164Z,4.82
2023-05-01T03:01:11.473Z,6.88
2023-05-01T03:03:40.081Z,5.80
2023-05-01T03:06:09.580Z,4.88
2023-05-01T03:08:37.439Z,5.72
2023-05-01T03:11:07.528Z,5.68
2023-05-01T03:13:35.562Z,5.25
2023-05-01T03:16:04.598Z,4.78
2023-05-01T03:18:32.015Z,4.68
2023-05-01T03:20:59.338Z,5.90
2023-05-01T03:23:28.568Z,5.63
2023-05-01T03:25:56.121Z,5.25
2023-05-01T03:28:24.844Z,6.35
2023-05-01T03:30:53.654Z,5.20
2023-05-01T03:33:21.106Z,5.57
2023-05-01T03:35:48.703Z,5.00
2023-05-01T03:38:17.667Z,5.70
2023-05-01T03:41:05.339Z,4.80
2023-05-01T03:43:51.116Z,5.50
2023-05-01T03:46:30.060Z,6.10
2023-05-01T03:48:58.439Z,5.75
2023-05-01T03:51:27.149Z,5.53
2023-05-01T03:54:01.346Z,4.82
2023-05-01T03:56:35.854Z,5.72
2023-05-01T03:59:04.565Z,4.70
2023-05-01T04:01:33.686Z,5.22
2023-05-01T04:04:02.284Z,5.40
2023-05-01T04:06:30.201Z,4.85
2023-05-01T04:08:57.489Z,5.97
2023-05-01T04:11:24.797Z,6.45
2023-05-01T04:13:53.124Z,5.38
2023-05-01T04:16:20.894Z,6.40
2023-05-01T04:18:48.898Z,5.88
2023-05-01T04:21:18.838Z,5.90
2023-05-01T04:23:49.930Z,5.00
2023-05-01T04:26:19.311Z,5.22
2023-05-01T04:28:47.900Z,5.30
2023-05-01T04:31:18.812Z,5.97
2023-05-01T04:33:46.137Z,5.00
2023-05-01T04:36:15.164Z,5.85
2023-05-01T04:38:43.043Z,6.78
2023-05-01T04:41:10.392Z,6.05
2023-05-01T04:43:39.614Z,5.60
2023-05-01T04:46:08.203Z,6.35
2023-05-01T04:48:36.370Z,6.70
2023-05-01T04:51:04.225Z,5.47
2023-05-01T04:53:34.376Z,6.13
2023-05-01T04:56:03.121Z,6.97
2023-05-01T04:58:31.857Z,5.80
2023-05-01T05:01:05.842Z,6.75
2023-05-01T05:03:35.523Z,6.45
2023-05-01T05:06:11.628Z,6.03
2023-05-01T05:08:39.069Z,6.65
2023-05-01T05:11:10.996Z,7.15
2023-05-01T05:13:58.347Z,5.82
2023-05-01T05:16:25.806Z,6.47
2023-05-01T05:19:03.675Z,7.22
2023-05-01T05:21:37.326Z,6.18
2023-05-01T05:24:05.678Z,6.75
2023-05-01T05:26:33.159Z,7.30
2023-05-01T05:29:03.875Z,7.45
2023-05-01T05:31:31.432Z,7.00
2023-05-01T05:34:00.477Z,7.50
2023-05-01T05:36:29.754Z,6.93
2023-05-01T05:38:57.583Z,7.65
2023-05-01T05:41:24.898Z,6.22
2023-05-01T05:43:56.928Z,7.18
2023-05-01T05:46:24.683Z,6.88
2023-05-01T05:48:52.853Z,6.78
2023-05-01T05:51:20.267Z,6.80
2023-05-01T05:53:50.017Z,6.88
2023-05-01T05:56:17.984Z,7.78
2023-05-01T05:58:46.682Z,7.60
2023-05-01T06:01:15.054Z,7.30
2023-05-01T06:03:42.648Z,7.63
2023-05-01T06:06:10.420Z,8.32
2023-05-01T06:08:39.521Z,7.78
2023-05-01T06:11:11.970Z,7.57
2023-05-01T06:13:39.294Z,7.25
2023-05-01T06:16:08.465Z,7.65
2023-05-01T06:18:36.619Z,7.45
2023-05-01T06:21:04.173Z,8.32
2023-05-01T06:23:34.092Z,8.95
2023-05-01T06:26:21.668Z,8.90
2023-05-01T06:28:49.063Z,9.25
2023-05-01T06:31:16.538Z,10.05
2023-05-01T06:33:49.610Z,10.77
2023-05-01T06:36:24.651Z,9.40
2023-05-01T06:38:51.998Z,8.55
2023-05-01T06:41:20.044Z,8.77
2023-05-01T06:43:47.750Z,8.70
2023-05-01T06:46:18.090Z,9.85
2023-05-01T06:48:45.437Z,9.98
2023-05-01T06:51:16.091Z,9.48
2023-05-01T06:53:43.494Z,9.65
2023-05-01T06:56:10.989Z,9.38
2023-05-01T06:58:38.788Z,8.05
2023-05-01T07:01:06.173Z,8.52
2023-05-01T07:03:33.657Z,9.80
2023-05-01T07:06:01.209Z,9.55
2023-05-01T07:08:30.667Z,9.90
2023-05-01T07:10:58.178Z,10.27
2023-05-01T07:13:27.514Z,9.70
2023-05-01T07:15:55.217Z,10.38
2023-05-01T07:18:24.097Z,9.43
2023-05-01T07:20:53.085Z,9.00
2023-05-01T07:23:20.704Z,9.20
2023-05-01T07:25:47.918Z,9.70
2023-05-01T07:28:18.136Z,8.20
2023-05-01T07:30:46.916Z,10.15
2023-05-01T07:33:14.582Z,8.70
2023-05-01T07:35:45.868Z,8.60
2023-05-01T07:38:14.080Z,9.00
2023-05-01T07:40:42.014Z,10.60
2023-05-01T07:43:11.649Z,8.10
2023-05-01T07:45:43.043Z,9.32
2023-05-01T07:48:11.728Z,9.35
2023-05-01T07:50:40.496Z,8.75
2023-05-01T07:53:08.366Z,9.40
2023-05-01T07:55:37.278Z,8.75
2023-05-01T07:58:06.386Z,8.60
2023-05-01T08:00:37.277Z,8.85
2023-05-01T08:03:04.758Z,8.50
2023-05-01T08:05:32.292Z,9.68
2023-05-01T08:07:59.926Z,8.60
2023-05-01T08:10:28.753Z,8.98
2023-05-01T08:12:58.269Z,9.55
2023-05-01T08:15:26.115Z,8.60
2023-05-01T08:17:53.471Z,8.57
2023-05-01T08:20:21.329Z,8.88
2023-05-01T08:22:49.809Z,9.52
2023-05-01T08:25:17.188Z,9.55
2023-05-01T08:27:44.661Z,9.68
2023-05-01T08:30:12.410Z,8.20
2023-05-01T08:32:39.870Z,10.63
2023-05-01T08:35:07.784Z,8.23
2023-05-01T08:37:35.377Z,9.88
2023-05-01T08:40:08.474Z,8.63
2023-05-01T08:42:38.951Z,8.60
2023-05-01T08:45:11.845Z,10.02
2023-05-01T08:47:40.859Z,10.18
2023-05-01T08:50:14.073Z,8.52
2023-05-01T08:52:43.220Z,8.57
2023-05-01T08:55:16.549Z,7.75
2023-05-01T08:57:48.973Z,7.30
2023-05-01T09:00:21.574Z,8.18
2023-05-01T09:02:51.493Z,7.10
2023-05-01T09:05:21.405Z,7.32
2023-05-01T09:07:49.469Z,8.18
2023-05-01T09:10:19.340Z,8.23
2023-05-01T09:13:00.883Z,9.13
2023-05-01T09:15:30.685Z,9.38
2023-05-01T09:18:04.801Z,8.48
2023-05-01T09:20:32.661Z,8.80
2023-05-01T09:23:00.226Z,7.13
2023-05-01T09:25:28.019Z,9.02
2023-05-01T09:27:57.752Z,9.63
2023-05-01T09:30:37.418Z,9.68
2023-05-01T09:33:14.026Z,8.82
2023-05-01T09:35:57.094Z,8.27
2023-05-01T09:38:29.060Z,8.68
2023-05-01T09:41:06.055Z,8.73
2023-05-01T09:43:33.820Z,8.45
2023-05-01T09:46:23.631Z,8.45
2023-05-01T09:49:03.469Z,8.55
2023-05-01T09:51:35.594Z,8.32
2023-05-01T09:54:05.399Z,8.65
2023-05-01T09:56:47.294Z,7.50
2023-05-01T09:59:22.743Z,8.25
2023-05-01T10:01:51.167Z,7.93
2023-05-01T10:04:30.298Z,8.00
2023-05-01T10:07:19.200Z,7.78
2023-05-01T10:09:48.660Z,7.35
2023-05-01T10:12:27.230Z,7.55
2023-05-01T10:14:57.879Z,6.10
2023-05-01T10:17:25.540Z,6.90
2023-05-01T10:19:56.248Z,7.43
2023-05-01T10:22:26.805Z,7.22
2023-05-01T10:24:54.562Z,7.30
2023-05-01T10:27:28.698Z,7.80
2023-05-01T10:29:57.665Z,9.13
2023-05-01T10:32:25.839Z,8.43
2023-05-01T10:35:02.941Z,9.18
2023-05-01T10:37:48.676Z,9.40
2023-05-01T10:40:41.261Z,9.23
2023-05-01T10:43:31.157Z,8.77
2023-05-01T10:46:15.465Z,10.25
2023-05-01T10:48:51.702Z,9.15
2023-05-01T10:51:58.241Z,7.97
2023-05-01T10:54:38.163Z,7.93
2023-05-01T10:57:07.328Z,9.40
2023-05-01T11:00:11.661Z,8.85
2023-05-01T11:03:22.263Z,9.23
2023-05-01T11:06:07.228Z,8.75
2023-05-01T11:08:38.453Z,8.52
2023-05-01T11:11:27.570Z,11.45
2023-05-01T11:14:08.640Z,10.27
2023-05-01T11:16:56.369Z,9.25
2023-05-01T11:19:24.509Z,9.13
2023-05-01T11:21:52.533Z,9.88
2023-05-01T11:24:33.560Z,9.13
2023-05-01T11:27:02.184Z,9.40
2023-05-01T11:29:38.098Z,9.68
2023-05-01T11:32:09.911Z,9.60
2023-05-01T11:34:39.778Z,8.82
2023-05-01T11:37:09.239Z,9.93
2023-05-01T11:39:37.768Z,8.70
2023-05-01T11:42:11.633Z,7.65
2023-05-01T11:44:39.238Z,10.43
2023-05-01T11:47:10.330Z,9.80
2023-05-01T11:49:39.365Z,9.13
2023-05-01T11:52:09.912Z,8.98
2023-05-01T11:54:49.686Z,10.30
2023-05-01T11:57:20.255Z,7.78
2023-05-01T11:59:48.856Z,9.50
2023-05-01T12:02:23.574Z,9.70
2023-05-01T12:04:53.983Z,10.75
2023-05-01T12:07:29.743Z,9.10
2023-05-01T12:10:01.467Z,7.93
2023-05-01T12:12:37.788Z,9.38
2023-05-01T12:15:09.902Z,8.23
2023-05-01T12:17:38.457Z,8.75
2023-05-01T12:20:10.257Z,8.48
2023-05-01T12:22:55.200Z,8.40
2023-05-01T12:25:34.282Z,8.43
2023-05-01T12:28:29.706Z,9.18
2023-05-01T12:31:05.434Z,8.25
2023-05-01T12:33:37.117Z,8.13
2023-05-01T12:36:12.388Z,8.45
2023-05-01T12:38:40.252Z,7.97
2023-05-01T12:41:12.005Z,7.45
2023-05-01T12:43:39.657Z,6.93
2023-05-01T12:46:16.780Z,6.45
2023-05-01T12:48:44.204Z,6.57
2023-05-01T12:51:22.898Z,7.15
2023-05-01T12:53:52.787Z,5.82
2023-05-01T12:56:27.258Z,6.78
2023-05-01T12:58:57.829Z,6.47
2023-05-01T13:01:27.770Z,5.40
2023-05-01T13:03:58.298Z,6.43
2023-05-01T13:06:33.942Z,5.80
2023-05-01T13:09:18.549Z,6.13
2023-05-01T13:12:07.844Z,4.90
2023-05-01T13:14:41.929Z,5.78
2023-05-01T13:17:23.232Z,8.07
2023-05-01T13:20:05.983Z,8.98
2023-05-01T13:22:39.556Z,7.68
2023-05-01T13:25:22.582Z,9.25
2023-05-01T13:27:53.482Z,9.20
2023-05-01T13:30:35.151Z,9.00
2023-05-01T13:33:14.214Z,8.35
2023-05-01T13:35:42.772Z,9.80
2023-05-01T13:38:12.785Z,10.00
2023-05-01T13:40:41.655Z,9.32
2023-05-01T13:43:22.434Z,9.52
2023-05-01T13:45:50.012Z,9.48
2023-05-01T13:48:19.068Z,8.50
2023-05-01T13:50:51.509Z,8.75
2023-05-01T13:53:19.121Z,8.50
2023-05-01T13:55:49.014Z,8.80
2023-05-01T13:58:16.373Z,9.13
2023-05-01T14:00:45.790Z,7.97
2023-05-01T14:03:18.755Z,8.45
2023-05-01T14:05:48.777Z,8.10
2023-05-01T14:08:16.350Z,8.23
2023-05-01T14:10:45.027Z,7.15
2023-05-01T14:13:17.946Z,7.00
2023-05-01T14:15:45.840Z,6.68
2023-05-01T14:18:18.915Z,7.55
2023-05-01T14:20:48.104Z,7.68
2023-05-01T14:23:20.776Z,7.35
2023-05-01T14:25:49.760Z,6.30
2023-05-01T14:28:20.014Z,7.55
2023-05-01T14:30:49.589Z,7.03
2023-05-01T14:33:18.389Z,8.68
2023-05-01T14:35:54.912Z,7.68
2023-05-01T14:38:27.571Z,7.88
2023-05-01T14:40:57.595Z,8.13
2023-05-01T14:43:31.050Z,8.02
2023-05-01T14:46:00.819Z,8.13
2023-05-01T14:48:46.892Z,7.75
2023-05-01T14:51:43.932Z,8.52
2023-05-01T14:54:23.882Z,7.68
2023-05-01T14:56:54.324Z,8.52
2023-05-01T15:02:13.068Z,9.70
2023-05-01T15:04:50.128Z,8.15
2023-05-01T15:07:18.622Z,10.18
2023-05-01T15:09:46.535Z,9.45
2023-05-01T15:12:15.310Z,9.02
2023-05-01T15:14:44.565Z,8.35
2023-05-01T15:17:21.258Z,9.32
2023-05-01T15:19:59.818Z,8.60
2023-05-01T15:22:31.343Z,8.73
2023-05-01T15:25:01.680Z,8.25
2023-05-01T15:27:29.490Z,8.05
2023-05-01T15:29:57.658Z,8.55
2023-05-01T15:32:35.367Z,8.52
2023-05-01T15:35:12.078Z,7.03
2023-05-01T15:37:41.915Z,7.35
2023-05-01T15:40:14.222Z,7.35
2023-05-01T15:42:50.461Z,8.50
2023-05-01T15:45:18.249Z,7.25
2023-05-01T15:47:47.040Z,7.43
2023-05-01T15:50:15.813Z,6.55
2023-05-01T15:52:44.638Z,8.38
2023-05-01T15:55:13.982Z,8.20
2023-05-01T15:57:42.735Z,8.68
2023-05-01T16:00:12.957Z,8.18
2023-05-01T16:02:41.397Z,7.50
2023-05-01T16:05:09.489Z,7.13
2023-05-01T16:07:39.200Z,8.00
2023-05-01T16:10:09.591Z,7.60
2023-05-01T16:12:37.249Z,7.95
2023-05-01T16:15:14.723Z,7.28
2023-05-01T16:17:46.765Z,7.78
2023-05-01T16:20:14.899Z,8.32
2023-05-01T16:22:43.804Z,8.55
2023-05-01T16:25:12.893Z,8.57
2023-05-01T16:27:44.307Z,7.80
2023-05-01T16:30:17.487Z,8.48
2023-05-01T16:32:58.705Z,8.02
2023-05-01T16:35:28.432Z,7.78
2023-05-01T16:38:03.190Z,8.00
2023-05-01T16:40:31.180Z,9.05
2023-05-01T16:43:04.836Z,7.88
2023-05-01T16:45:33.234Z,8.35
2023-05-01T16:48:00.782Z,8.52
2023-05-01T16:50:44.314Z,8.20
2023-05-01T16:53:13.364Z,8.80
2023-05-01T16:55:41.986Z,10.10
2023-05-01T16:58:12.461Z,9.75
2023-05-01T17:00:40.015Z,9.38
2023-05-01T17:03:07.990Z,9.35
2023-05-01T17:05:35.552Z,10.52
2023-05-01T17:08:20.394Z,9.25
2023-05-01T17:10:48.066Z,10.13
2023-05-01T17:13:17.490Z,10.32
2023-05-01T17:15:45.696Z,8.77
2023-05-01T17:18:16.726Z,9.70
2023-05-01T17:20:46.875Z,9.52
2023-05-01T17:23:19.555Z,8.60
2023-05-01T17:25:46.903Z,9.50
2023-05-01T17:28:16.413Z,9.88
2023-05-01T17:30:44.921Z,9.85
2023-05-01T17:33:18.423Z,10.75
2023-05-01T17:35:56.363Z,10.57
2023-05-01T17:38:25.000Z,11.05
2023-05-01T17:40:53.641Z,10.43
2023-05-01T17:43:28.005Z,9.95
2023-05-01T17:45:56.461Z,12.50
2023-05-01T17:48:28.963Z,11.43
2023-05-01T17:50:56.397Z,11.80
2023-05-01T17:53:23.918Z,12.45
2023-05-01T17:55:53.998Z,13.27
2023-05-01T17:58:22.480Z,11.77
2023-05-01T18:00:51.310Z,11.48
2023-05-01T18:03:19.161Z,12.15
2023-05-01T18:05:53.437Z,11.93
2023-05-01T18:08:22.805Z,13.75
2023-05-01T18:10:50.516Z,12.15
2023-05-01T18:13:18.011Z,11.95
2023-05-01T18:15:52.568Z,11.32
2023-05-01T18:18:22.111Z,13.50
2023-05-01T18:20:49.765Z,13.52
2023-05-01T18:23:19.327Z,13.70
2023-05-01T18:25:47.908Z,16.00
2023-05-01T18:28:19.052Z,14.15
2023-05-01T18:30:48.756Z,15.50
2023-05-01T18:33:16.568Z,14.07
2023-05-01T18:35:46.514Z,14.10
2023-05-01T18:38:14.949Z,14.32
2023-05-01T18:40:43.908Z,14.52
2023-05-01T18:43:14.223Z,12.40
2023-05-01T18:45:42.834Z,14.32
2023-05-01T18:48:10.263Z,13.75
2023-05-01T18:50:37.633Z,12.73
2023-05-01T18:53:06.072Z,13.00
2023-05-01T18:55:42.623Z,14.05
2023-05-01T18:58:10.050Z,15.00
2023-05-01T19:00:37.342Z,13.82
2023-05-01T19:03:07.265Z,14.45
2023-05-01T19:05:34.630Z,13.57
2023-05-01T19:08:05.460Z,13.98
2023-05-01T19:10:37.332Z,14.77
2023-05-01T19:13:09.610Z,16.13
2023-05-01T19:15:37.107Z,16.40
2023-05-01T19:18:05.102Z,15.18
2023-05-01T19:20:33.695Z,15.52
2023-05-01T19:23:02.305Z,16.25
2023-05-01T19:25:34.686Z,16.80
2023-05-01T19:28:03.862Z,16.10
2023-05-01T19:30:32.327Z,17.27
2023-05-01T19:33:04.013Z,18.13
2023-05-01T19:35:55.624Z,18.98
2023-05-01T19:38:23.146Z,18.45
2023-05-01T19:40:50.705Z,19.98
2023-05-01T19:43:19.407Z,19.88
2023-05-01T19:45:49.656Z,20.73
2023-05-01T19:48:21.172Z,21.50
2023-05-01T19:50:52.604Z,20.33
2023-05-01T19:53:21.129Z,21.17
2023-05-01T19:55:49.404Z,22.30
2023-05-01T19:58:18.756Z,23.23
2023-05-01T20:00:46.708Z,24.63
2023-05-01T20:03:29.653Z,23.70
2023-05-01T20:06:01.434Z,24.13
2023-05-01T20:11:37.903Z,25.63
2023-05-01T20:14:10.711Z,22.95
2023-05-01T20:17:01.377Z,26.92
2023-05-01T20:20:15.980Z,25.55
2023-05-01T20:23:19.723Z,25.70
2023-05-01T20:25:59.280Z,27.83
2023-05-01T20:29:00.468Z,26.42
2023-05-01T20:31:34.833Z,28.70
2023-05-01T20:34:03.460Z,28.58
2023-05-01T20:36:58.157Z,27.98
2023-05-01T20:39:25.749Z,26.58
2023-05-01T20:41:58.921Z,28.20
2023-05-01T20:44:35.883Z,27.83
2023-05-01T20:47:22.533Z,28.67
2023-05-01T20:49:50.249Z,27.67
2023-05-01T20:52:26.036Z,30.00
2023-05-01T20:54:54.566Z,27.58
2023-05-01T20:57:22.564Z,26.63
2023-05-01T20:59:52.860Z,29.13
2023-05-01T21:02:21.509Z,26.58
2023-05-01T21:04:48.840Z,28.40
2023-05-01T21:07:17.490Z,28.13
2023-05-01T21:09:46.004Z,30.40
2023-05-01T21:12:16.908Z,30.00
2023-05-01T21:14:45.918Z,29.38
2023-05-01T21:17:15.893Z,29.45
2023-05-01T21:19:51.361Z,32.85
2023-05-01T21:22:23.489Z,31.70
2023-05-01T21:24:58.442Z,32.42
2023-05-01T21:27:28.875Z,33.72
2023-05-01T21:30:00.366Z,32.92
2023-05-01T21:32:40.409Z,30.30
2023-05-01T21:35:10.245Z,34.83
2023-05-01T21:37:38.536Z,35.42
2023-05-01T21:40:14.506Z,32.65
2023-05-01T21:42:42.549Z,37.35
2023-05-01T21:45:14.295Z,37.80
2023-05-01T21:47:52.105Z,35.28
2023-05-01T21:50:22.774Z,37.28
2023-05-01T21:52:50.980Z,33.70
2023-05-01T21:55:26.328Z,37.55
2023-05-01T21:57:54.108Z,31.73
2023-05-01T22:00:22.421Z,30.83
2023-05-01T22:02:52.011Z,32.70
2023-05-01T22:05:23.001Z,30.08
2023-05-01T22:07:54.479Z,29.80
2023-05-01T22:10:21.831Z,30.63
2023-05-01T22:12:49.700Z,31.15
2023-05-01T22:15:18.691Z,28.77
2023-05-01T22:17:47.521Z,30.20
2023-05-01T22:20:14.936Z,30.58
2023-05-01T22:22:46.006Z,28.35
2023-05-01T22:25:16.642Z,28.95
2023-05-01T22:27:43.964Z,30.52
2023-05-01T22:32:58.308Z,30.23
2023-05-01T22:35:27.293Z,25.63
2023-05-01T22:37:54.715Z,27.17
2023-05-01T22:40:23.164Z,25.65
2023-05-01T22:42:52.055Z,23.95
2023-05-01T22:45:19.630Z,24.83
2023-05-01T22:47:47.540Z,24.75
2023-05-01T22:50:15.009Z,26.15
2023-05-01T22:52:44.671Z,24.98
2023-05-01T22:55:13.903Z,27.00
2023-05-01T22:57:41.277Z,24.33
2023-05-01T23:00:14.280Z,26.58
2023-05-01T23:02:41.562Z,22.50
2023-05-01T23:05:10.408Z,24.08
2023-05-01T23:07:38.206Z,24.70
2023-05-01T23:10:07.260Z,24.45
2023-05-01T23:12:38.858Z,23.55
2023-05-01T23:15:16.359Z,24.92
2023-05-01T23:17:44.706Z,22.98
2023-05-01T23:20:24.565Z,22.38
2023-05-01T23:22:56.390Z,24.10
2023-05-01T23:25:26.864Z,23.50
2023-05-01T23:28:05.579Z,23.05
2023-05-01T23:30:33.798Z,21.55
2023-05-01T23:33:01.211Z,20.45
2023-05-01T23:35:30.214Z,20.08
2023-05-01T23:37:57.775Z,19.58
2023-05-01T23:40:25.227Z,20.45
2023-05-01T23:42:53.006Z,17.13
2023-05-01T23:45:20.457Z,19.38
2023-05-01T23:47:48.675Z,20.17
2023-05-01T23:50:16.051Z,17.23
2023-05-01T23:52:43.752Z,20.00
2023-05-01T23:55:14.220Z,18.65
2023-05-01T23:57:41.552Z,19.27
